CheckWX is a tool to help pilots better visualize weather data.  It is not intended as a substitute for an official pre-flight weather briefing.

05:13:13 UTC

KJES METAR
Jesup-Wayne County Airport
Jesup, Georgia, USA
Current

13 mins ago

KJES 240500Z AUTO 00000KT 1/4SM FG OVC003 18/16 A3007 RMK AO2
Observed
Feb-24 @ 05:00 UTC
Visibility
1/4 SM
Flight Rules
LIFR
Conditions
Fog
Cloud Levels
  • Overcast at 300' AGL
Temperature
18°C / 64°F
Dewpoint
16°C / 61°F
Humidity
88%
Altimeter
30.07" Hg
Pressure
1018.32 hPa
Previous

53 mins ago

KJES 240420Z AUTO 00000KT 1/4SM FG OVC003 18/16 A3007 RMK AO2
Observed
Feb-24 @ 04:20 UTC
Visibility
1/4 SM
Flight Rules
LIFR
Conditions
Fog
Cloud Levels
  • Overcast at 300' AGL
Temperature
18°C / 64°F
Dewpoint
16°C / 61°F
Humidity
88%
Altimeter
30.07" Hg
Pressure
1018.32 hPa
Previous

1 hour ago

KJES 240400Z AUTO 00000KT 1/4SM FG OVC003 18/16 A3008 RMK AO2
Observed
Feb-24 @ 04:00 UTC
Visibility
1/4 SM
Flight Rules
LIFR
Conditions
Fog
Cloud Levels
  • Overcast at 300' AGL
Temperature
18°C / 64°F
Dewpoint
16°C / 61°F
Humidity
88%
Altimeter
30.08" Hg
Pressure
1018.62 hPa